Weather at Longcoy Airport [CLOSED]

Public forecast

Using degrees Fahrenheit for public forecast. Weather courtesy of forecast.io.

Closest aviation weather report (METAR) to Longcoy Airport

Closest report is Orlando Executive Airport, 9.6 nm (17.8 km) E. Retrieved 2022/01/27 08:13 UTC (2 minutes ago):

KORL 270813Z AUTO 01009KT 10SM SCT011 BKN022 OVC048 17/14 A3008 RMK AO2 T01720144

Closest aviation forecast (TAF) to Longcoy Airport

Closest forecast is Orlando International Airport, 13.8 nm (25.6 km) SE. Retrieved 2022/01/27 06:03 UTC (2 hours ago):

TAF KMCO 270559Z 2706/2812 36007KT P6SM SCT017 OVC025 FM270900 36009KT 6SM BR OVC006 FM271300 01010KT P6SM BKN015 FM271800 01015G21KT P6SM SCT015 BKN025 FM280200 35009KT P6SM SCT025 BKN035